sensor_id;sensor_type;location;lat;lon;timestamp;P1;durP1;ratioP1;P2;durP2;ratioP2
34988;SDS011;21192;40.182;44.516;2023-07-31T00:01:33;7.45;;;2.83;;
34988;SDS011;21192;40.182;44.516;2023-07-31T00:03:59;8.95;;;4.20;;
34988;SDS011;21192;40.182;44.516;2023-07-31T00:06:25;7.43;;;3.45;;
34988;SDS011;21192;40.182;44.516;2023-07-31T00:08:50;10.40;;;3.13;;
34988;SDS011;21192;40.182;44.516;2023-07-31T00:11:16;12.73;;;3.00;;
34988;SDS011;21192;40.182;44.516;2023-07-31T00:13:42;9.52;;;3.20;;
34988;SDS011;21192;40.182;44.516;2023-07-31T00:16:08;9.30;;;3.50;;
34988;SDS011;21192;40.182;44.516;2023-07-31T00:18:34;7.10;;;3.13;;
34988;SDS011;21192;40.182;44.516;2023-07-31T00:21:00;9.30;;;2.85;;
34988;SDS011;21192;40.182;44.516;2023-07-31T00:23:26;11.13;;;3.40;;
34988;SDS011;21192;40.182;44.516;2023-07-31T00:25:51;7.13;;;2.75;;
34988;SDS011;21192;40.182;44.516;2023-07-31T00:28:17;7.15;;;2.47;;
34988;SDS011;21192;40.182;44.516;2023-07-31T00:30:43;6.50;;;2.70;;
34988;SDS011;21192;40.182;44.516;2023-07-31T00:33:09;8.43;;;3.17;;
34988;SDS011;21192;40.182;44.516;2023-07-31T00:35:35;8.18;;;3.13;;
34988;SDS011;21192;40.182;44.516;2023-07-31T00:38:01;7.43;;;2.95;;
34988;SDS011;21192;40.182;44.516;2023-07-31T00:40:27;5.65;;;2.22;;
34988;SDS011;21192;40.182;44.516;2023-07-31T00:42:53;7.05;;;2.40;;
34988;SDS011;21192;40.182;44.516;2023-07-31T00:45:18;9.07;;;3.60;;
34988;SDS011;21192;40.182;44.516;2023-07-31T00:47:45;4.60;;;2.85;;
34988;SDS011;21192;40.182;44.516;2023-07-31T00:50:11;6.60;;;2.92;;
34988;SDS011;21192;40.182;44.516;2023-07-31T00:52:38;11.00;;;3.33;;
34988;SDS011;21192;40.182;44.516;2023-07-31T00:55:04;7.45;;;2.95;;
34988;SDS011;21192;40.182;44.516;2023-07-31T00:57:31;10.85;;;3.42;;
34988;SDS011;21192;40.182;44.516;2023-07-31T00:59:58;17.85;;;4.43;;
34988;SDS011;21192;40.182;44.516;2023-07-31T01:02:24;9.10;;;4.95;;
34988;SDS011;21192;40.182;44.516;2023-07-31T01:04:50;12.52;;;6.03;;
34988;SDS011;21192;40.182;44.516;2023-07-31T01:09:49;11.60;;;3.08;;
34988;SDS011;21192;40.182;44.516;2023-07-31T01:12:35;8.98;;;2.67;;
34988;SDS011;21192;40.182;44.516;2023-07-31T01:15:07;11.90;;;2.92;;
34988;SDS011;21192;40.182;44.516;2023-07-31T01:17:43;11.05;;;6.65;;
34988;SDS011;21192;40.182;44.516;2023-07-31T01:20:14;7.53;;;3.33;;
34988;SDS011;21192;40.182;44.516;2023-07-31T01:28:16;9.30;;;3.28;;
34988;SDS011;21192;40.182;44.516;2023-07-31T01:30:50;13.18;;;3.40;;
34988;SDS011;21192;40.182;44.516;2023-07-31T01:33:16;10.60;;;3.47;;
34988;SDS011;21192;40.182;44.516;2023-07-31T01:35:46;11.52;;;3.60;;
34988;SDS011;21192;40.182;44.516;2023-07-31T01:38:14;9.63;;;3.88;;
34988;SDS011;21192;40.182;44.516;2023-07-31T01:40:43;9.68;;;3.80;;
34988;SDS011;21192;40.182;44.516;2023-07-31T01:43:09;8.02;;;3.30;;
34988;SDS011;21192;40.182;44.516;2023-07-31T01:45:35;9.95;;;3.05;;
34988;SDS011;21192;40.182;44.516;2023-07-31T01:48:01;10.23;;;3.40;;
34988;SDS011;21192;40.182;44.516;2023-07-31T01:50:27;7.45;;;3.42;;
34988;SDS011;21192;40.182;44.516;2023-07-31T01:52:52;10.55;;;3.65;;
34988;SDS011;21192;40.182;44.516;2023-07-31T01:55:18;13.23;;;4.13;;
34988;SDS011;21192;40.182;44.516;2023-07-31T01:57:44;15.15;;;4.50;;
34988;SDS011;21192;40.182;44.516;2023-07-31T02:00:10;16.50;;;4.15;;
34988;SDS011;21192;40.182;44.516;2023-07-31T02:02:36;20.77;;;4.15;;
34988;SDS011;21192;40.182;44.516;2023-07-31T02:05:02;14.23;;;3.47;;
34988;SDS011;21192;40.182;44.516;2023-07-31T02:07:28;17.80;;;4.18;;
34988;SDS011;21192;40.182;44.516;2023-07-31T02:09:54;18.92;;;4.20;;
34988;SDS011;21192;40.182;44.516;2023-07-31T02:12:20;14.85;;;4.13;;
34988;SDS011;21192;40.182;44.516;2023-07-31T02:14:46;16.67;;;3.83;;
34988;SDS011;21192;40.182;44.516;2023-07-31T02:17:11;23.10;;;4.15;;
34988;SDS011;21192;40.182;44.516;2023-07-31T02:19:37;15.43;;;4.97;;
34988;SDS011;21192;40.182;44.516;2023-07-31T02:22:03;24.80;;;7.22;;
34988;SDS011;21192;40.182;44.516;2023-07-31T02:24:29;29.08;;;6.28;;
34988;SDS011;21192;40.182;44.516;2023-07-31T02:26:57;20.80;;;5.65;;
34988;SDS011;21192;40.182;44.516;2023-07-31T02:29:22;35.00;;;10.57;;
34988;SDS011;21192;40.182;44.516;2023-07-31T02:31:48;25.92;;;6.35;;
34988;SDS011;21192;40.182;44.516;2023-07-31T02:34:14;22.73;;;6.07;;
34988;SDS011;21192;40.182;44.516;2023-07-31T02:36:40;26.95;;;6.07;;
34988;SDS011;21192;40.182;44.516;2023-07-31T02:39:06;27.48;;;5.50;;
34988;SDS011;21192;40.182;44.516;2023-07-31T02:41:33;25.10;;;6.18;;
34988;SDS011;21192;40.182;44.516;2023-07-31T02:43:58;16.33;;;6.03;;
34988;SDS011;21192;40.182;44.516;2023-07-31T02:46:24;19.63;;;6.05;;
34988;SDS011;21192;40.182;44.516;2023-07-31T02:48:50;21.90;;;5.72;;
34988;SDS011;21192;40.182;44.516;2023-07-31T02:51:16;22.58;;;5.65;;
34988;SDS011;21192;40.182;44.516;2023-07-31T02:53:42;23.63;;;5.30;;
34988;SDS011;21192;40.182;44.516;2023-07-31T02:56:08;33.95;;;6.00;;
34988;SDS011;21192;40.182;44.516;2023-07-31T02:58:34;28.17;;;6.35;;
34988;SDS011;21192;40.182;44.516;2023-07-31T03:01:01;21.10;;;6.30;;
34988;SDS011;21192;40.182;44.516;2023-07-31T03:03:27;14.55;;;5.30;;
34988;SDS011;21192;40.182;44.516;2023-07-31T03:05:53;17.88;;;5.22;;
34988;SDS011;21192;40.182;44.516;2023-07-31T03:08:19;16.98;;;5.60;;
34988;SDS011;21192;40.182;44.516;2023-07-31T03:10:46;16.42;;;5.15;;
34988;SDS011;21192;40.182;44.516;2023-07-31T03:13:12;16.25;;;5.22;;
34988;SDS011;21192;40.182;44.516;2023-07-31T03:15:37;18.02;;;4.55;;
34988;SDS011;21192;40.182;44.516;2023-07-31T03:18:03;20.15;;;5.47;;
34988;SDS011;21192;40.182;44.516;2023-07-31T03:20:29;19.35;;;5.50;;
34988;SDS011;21192;40.182;44.516;2023-07-31T03:22:55;21.92;;;5.15;;
34988;SDS011;21192;40.182;44.516;2023-07-31T03:25:21;21.00;;;5.15;;
34988;SDS011;21192;40.182;44.516;2023-07-31T03:27:47;21.30;;;4.85;;
34988;SDS011;21192;40.182;44.516;2023-07-31T03:30:12;20.95;;;5.15;;
34988;SDS011;21192;40.182;44.516;2023-07-31T03:32:38;13.73;;;5.30;;
34988;SDS011;21192;40.182;44.516;2023-07-31T03:35:04;20.30;;;5.13;;
34988;SDS011;21192;40.182;44.516;2023-07-31T03:37:30;16.88;;;5.10;;
34988;SDS011;21192;40.182;44.516;2023-07-31T03:39:56;19.08;;;5.20;;
34988;SDS011;21192;40.182;44.516;2023-07-31T03:42:22;19.80;;;5.65;;
34988;SDS011;21192;40.182;44.516;2023-07-31T03:44:48;20.98;;;5.10;;
34988;SDS011;21192;40.182;44.516;2023-07-31T03:47:14;27.52;;;5.55;;
34988;SDS011;21192;40.182;44.516;2023-07-31T03:49:40;16.75;;;4.78;;
34988;SDS011;21192;40.182;44.516;2023-07-31T03:52:06;17.75;;;4.50;;
34988;SDS011;21192;40.182;44.516;2023-07-31T03:54:32;20.00;;;4.78;;
34988;SDS011;21192;40.182;44.516;2023-07-31T03:56:58;11.82;;;4.30;;
34988;SDS011;21192;40.182;44.516;2023-07-31T03:59:24;21.60;;;4.95;;
34988;SDS011;21192;40.182;44.516;2023-07-31T04:01:49;17.17;;;4.53;;
34988;SDS011;21192;40.182;44.516;2023-07-31T04:04:15;13.63;;;4.43;;
34988;SDS011;21192;40.182;44.516;2023-07-31T04:06:41;17.33;;;5.10;;
34988;SDS011;21192;40.182;44.516;2023-07-31T04:09:07;19.42;;;5.70;;
34988;SDS011;21192;40.182;44.516;2023-07-31T04:11:33;14.57;;;4.32;;
34988;SDS011;21192;40.182;44.516;2023-07-31T04:13:59;15.63;;;4.57;;
34988;SDS011;21192;40.182;44.516;2023-07-31T04:16:25;21.00;;;4.55;;
34988;SDS011;21192;40.182;44.516;2023-07-31T04:18:51;15.55;;;4.47;;
34988;SDS011;21192;40.182;44.516;2023-07-31T04:21:16;16.30;;;4.25;;
34988;SDS011;21192;40.182;44.516;2023-07-31T04:23:42;23.90;;;5.07;;
34988;SDS011;21192;40.182;44.516;2023-07-31T04:26:08;13.05;;;3.88;;
34988;SDS011;21192;40.182;44.516;2023-07-31T04:28:34;17.90;;;4.15;;
34988;SDS011;21192;40.182;44.516;2023-07-31T04:31:00;14.00;;;3.88;;
34988;SDS011;21192;40.182;44.516;2023-07-31T04:33:26;13.00;;;3.30;;
34988;SDS011;21192;40.182;44.516;2023-07-31T04:35:52;56.22;;;7.15;;
34988;SDS011;21192;40.182;44.516;2023-07-31T04:38:21;17.30;;;3.85;;
34988;SDS011;21192;40.182;44.516;2023-07-31T04:40:48;16.40;;;3.88;;
34988;SDS011;21192;40.182;44.516;2023-07-31T04:43:14;13.38;;;3.67;;
34988;SDS011;21192;40.182;44.516;2023-07-31T04:45:42;18.42;;;4.05;;
34988;SDS011;21192;40.182;44.516;2023-07-31T04:48:11;12.00;;;3.70;;
34988;SDS011;21192;40.182;44.516;2023-07-31T04:50:37;14.63;;;4.78;;
34988;SDS011;21192;40.182;44.516;2023-07-31T04:53:03;16.40;;;3.85;;
34988;SDS011;21192;40.182;44.516;2023-07-31T04:55:29;13.85;;;3.63;;
34988;SDS011;21192;40.182;44.516;2023-07-31T04:57:55;14.05;;;3.67;;
34988;SDS011;21192;40.182;44.516;2023-07-31T05:00:22;13.05;;;4.00;;
34988;SDS011;21192;40.182;44.516;2023-07-31T05:02:48;74.50;;;8.60;;
34988;SDS011;21192;40.182;44.516;2023-07-31T05:05:14;19.00;;;4.57;;
34988;SDS011;21192;40.182;44.516;2023-07-31T05:07:40;18.25;;;4.53;;
34988;SDS011;21192;40.182;44.516;2023-07-31T05:10:06;34.05;;;5.35;;
34988;SDS011;21192;40.182;44.516;2023-07-31T05:12:32;17.63;;;4.40;;
34988;SDS011;21192;40.182;44.516;2023-07-31T05:14:58;18.05;;;4.05;;
34988;SDS011;21192;40.182;44.516;2023-07-31T05:17:24;19.08;;;4.72;;
34988;SDS011;21192;40.182;44.516;2023-07-31T05:19:50;24.35;;;5.45;;
34988;SDS011;21192;40.182;44.516;2023-07-31T05:22:15;15.50;;;4.00;;
34988;SDS011;21192;40.182;44.516;2023-07-31T05:24:41;21.42;;;4.43;;
34988;SDS011;21192;40.182;44.516;2023-07-31T05:27:07;24.20;;;4.63;;
34988;SDS011;21192;40.182;44.516;2023-07-31T05:29:34;23.17;;;4.63;;
34988;SDS011;21192;40.182;44.516;2023-07-31T05:32:01;18.00;;;4.72;;
34988;SDS011;21192;40.182;44.516;2023-07-31T05:34:27;25.88;;;5.80;;
34988;SDS011;21192;40.182;44.516;2023-07-31T05:36:53;19.75;;;4.97;;
34988;SDS011;21192;40.182;44.516;2023-07-31T05:39:18;19.77;;;4.53;;
34988;SDS011;21192;40.182;44.516;2023-07-31T05:41:44;23.13;;;4.45;;
34988;SDS011;21192;40.182;44.516;2023-07-31T05:44:11;22.23;;;4.75;;
34988;SDS011;21192;40.182;44.516;2023-07-31T05:46:37;17.70;;;4.82;;
34988;SDS011;21192;40.182;44.516;2023-07-31T05:49:02;19.75;;;4.30;;
34988;SDS011;21192;40.182;44.516;2023-07-31T05:51:28;15.10;;;4.78;;
34988;SDS011;21192;40.182;44.516;2023-07-31T05:53:54;23.38;;;5.35;;
34988;SDS011;21192;40.182;44.516;2023-07-31T05:56:20;22.42;;;6.45;;
34988;SDS011;21192;40.182;44.516;2023-07-31T05:58:46;34.88;;;5.57;;
34988;SDS011;21192;40.182;44.516;2023-07-31T06:01:14;27.98;;;6.20;;
34988;SDS011;21192;40.182;44.516;2023-07-31T06:03:41;20.42;;;6.20;;
34988;SDS011;21192;40.182;44.516;2023-07-31T06:06:07;21.75;;;5.30;;
34988;SDS011;21192;40.182;44.516;2023-07-31T06:08:32;34.22;;;6.22;;
34988;SDS011;21192;40.182;44.516;2023-07-31T06:10:58;23.17;;;5.10;;
34988;SDS011;21192;40.182;44.516;2023-07-31T06:13:24;28.30;;;6.60;;
34988;SDS011;21192;40.182;44.516;2023-07-31T06:15:50;35.42;;;7.03;;
34988;SDS011;21192;40.182;44.516;2023-07-31T06:18:16;32.38;;;5.75;;
34988;SDS011;21192;40.182;44.516;2023-07-31T06:20:42;43.63;;;7.57;;
34988;SDS011;21192;40.182;44.516;2023-07-31T06:23:08;38.42;;;6.20;;
34988;SDS011;21192;40.182;44.516;2023-07-31T06:25:34;28.30;;;6.05;;
34988;SDS011;21192;40.182;44.516;2023-07-31T06:28:00;27.20;;;6.55;;
34988;SDS011;21192;40.182;44.516;2023-07-31T06:30:25;20.58;;;6.22;;
34988;SDS011;21192;40.182;44.516;2023-07-31T06:32:51;23.85;;;5.95;;
34988;SDS011;21192;40.182;44.516;2023-07-31T06:35:17;30.08;;;5.82;;
34988;SDS011;21192;40.182;44.516;2023-07-31T06:37:43;16.98;;;4.97;;
34988;SDS011;21192;40.182;44.516;2023-07-31T06:40:09;45.60;;;6.72;;
34988;SDS011;21192;40.182;44.516;2023-07-31T06:42:35;36.05;;;7.40;;
34988;SDS011;21192;40.182;44.516;2023-07-31T06:45:02;40.70;;;6.82;;
34988;SDS011;21192;40.182;44.516;2023-07-31T06:47:28;58.72;;;8.82;;
34988;SDS011;21192;40.182;44.516;2023-07-31T06:49:54;29.50;;;6.28;;
34988;SDS011;21192;40.182;44.516;2023-07-31T06:52:20;36.22;;;7.35;;
34988;SDS011;21192;40.182;44.516;2023-07-31T06:55:16;24.05;;;6.10;;
34988;SDS011;21192;40.182;44.516;2023-07-31T06:57:43;26.30;;;6.93;;
34988;SDS011;21192;40.182;44.516;2023-07-31T07:00:10;18.92;;;5.20;;
34988;SDS011;21192;40.182;44.516;2023-07-31T07:02:36;12.30;;;4.90;;
34988;SDS011;21192;40.182;44.516;2023-07-31T07:05:02;26.45;;;6.63;;
34988;SDS011;21192;40.182;44.516;2023-07-31T07:07:28;14.73;;;4.65;;
34988;SDS011;21192;40.182;44.516;2023-07-31T07:09:54;16.27;;;4.47;;
34988;SDS011;21192;40.182;44.516;2023-07-31T07:12:20;19.08;;;4.68;;
34988;SDS011;21192;40.182;44.516;2023-07-31T07:14:45;21.08;;;4.63;;
34988;SDS011;21192;40.182;44.516;2023-07-31T07:17:13;36.55;;;6.35;;
34988;SDS011;21192;40.182;44.516;2023-07-31T07:19:41;15.75;;;5.00;;
34988;SDS011;21192;40.182;44.516;2023-07-31T07:22:07;26.55;;;5.55;;
34988;SDS011;21192;40.182;44.516;2023-07-31T07:32:07;20.52;;;4.68;;
34988;SDS011;21192;40.182;44.516;2023-07-31T07:34:34;14.02;;;4.45;;
34988;SDS011;21192;40.182;44.516;2023-07-31T07:37:00;25.42;;;4.82;;
34988;SDS011;21192;40.182;44.516;2023-07-31T07:39:26;19.88;;;5.15;;
34988;SDS011;21192;40.182;44.516;2023-07-31T07:41:52;17.65;;;4.20;;
34988;SDS011;21192;40.182;44.516;2023-07-31T07:44:19;12.52;;;4.25;;
34988;SDS011;21192;40.182;44.516;2023-07-31T07:46:45;20.50;;;5.50;;
34988;SDS011;21192;40.182;44.516;2023-07-31T07:49:11;25.25;;;8.18;;
34988;SDS011;21192;40.182;44.516;2023-07-31T07:51:36;13.93;;;4.78;;
34988;SDS011;21192;40.182;44.516;2023-07-31T07:54:02;19.92;;;5.03;;
34988;SDS011;21192;40.182;44.516;2023-07-31T07:56:28;15.77;;;5.07;;
34988;SDS011;21192;40.182;44.516;2023-07-31T07:58:54;17.73;;;4.60;;
34988;SDS011;21192;40.182;44.516;2023-07-31T08:01:20;16.70;;;4.75;;
34988;SDS011;21192;40.182;44.516;2023-07-31T08:03:46;16.38;;;4.13;;
34988;SDS011;21192;40.182;44.516;2023-07-31T08:06:12;23.05;;;8.98;;
34988;SDS011;21192;40.182;44.516;2023-07-31T08:08:39;21.42;;;6.28;;
34988;SDS011;21192;40.182;44.516;2023-07-31T08:11:05;36.33;;;8.48;;
34988;SDS011;21192;40.182;44.516;2023-07-31T08:13:31;14.40;;;5.15;;
34988;SDS011;21192;40.182;44.516;2023-07-31T08:15:57;119.93;;;15.20;;
34988;SDS011;21192;40.182;44.516;2023-07-31T08:18:23;34.10;;;7.30;;
34988;SDS011;21192;40.182;44.516;2023-07-31T08:20:49;26.35;;;5.80;;
34988;SDS011;21192;40.182;44.516;2023-07-31T08:23:14;22.73;;;6.00;;
34988;SDS011;21192;40.182;44.516;2023-07-31T08:25:40;21.23;;;6.07;;
34988;SDS011;21192;40.182;44.516;2023-07-31T08:28:07;25.80;;;5.43;;
34988;SDS011;21192;40.182;44.516;2023-07-31T08:30:33;27.92;;;6.22;;
34988;SDS011;21192;40.182;44.516;2023-07-31T08:32:59;17.20;;;5.20;;
34988;SDS011;21192;40.182;44.516;2023-07-31T08:35:25;22.02;;;6.18;;
34988;SDS011;21192;40.182;44.516;2023-07-31T08:37:53;28.48;;;6.85;;
34988;SDS011;21192;40.182;44.516;2023-07-31T08:40:19;28.33;;;6.45;;
34988;SDS011;21192;40.182;44.516;2023-07-31T08:42:47;30.13;;;7.40;;
34988;SDS011;21192;40.182;44.516;2023-07-31T08:45:17;45.60;;;9.30;;
34988;SDS011;21192;40.182;44.516;2023-07-31T08:47:45;19.50;;;6.05;;
34988;SDS011;21192;40.182;44.516;2023-07-31T08:50:13;25.05;;;6.72;;
34988;SDS011;21192;40.182;44.516;2023-07-31T08:52:40;41.13;;;8.18;;
34988;SDS011;21192;40.182;44.516;2023-07-31T08:55:06;22.83;;;5.90;;
34988;SDS011;21192;40.182;44.516;2023-07-31T08:57:37;24.38;;;6.18;;
34988;SDS011;21192;40.182;44.516;2023-07-31T09:00:04;37.25;;;10.13;;
34988;SDS011;21192;40.182;44.516;2023-07-31T09:02:38;41.22;;;10.65;;
34988;SDS011;21192;40.182;44.516;2023-07-31T09:05:11;31.02;;;8.73;;
34988;SDS011;21192;40.182;44.516;2023-07-31T09:07:37;41.35;;;11.30;;
34988;SDS011;21192;40.182;44.516;2023-07-31T09:10:04;24.45;;;7.13;;
34988;SDS011;21192;40.182;44.516;2023-07-31T09:12:31;29.27;;;8.57;;
34988;SDS011;21192;40.182;44.516;2023-07-31T09:14:57;18.02;;;6.65;;
34988;SDS011;21192;40.182;44.516;2023-07-31T09:17:29;21.60;;;7.55;;
34988;SDS011;21192;40.182;44.516;2023-07-31T09:19:56;19.40;;;6.70;;
34988;SDS011;21192;40.182;44.516;2023-07-31T09:22:32;22.42;;;8.32;;
34988;SDS011;21192;40.182;44.516;2023-07-31T09:25:33;23.52;;;7.15;;
34988;SDS011;21192;40.182;44.516;2023-07-31T09:27:57;29.13;;;8.52;;
34988;SDS011;21192;40.182;44.516;2023-07-31T09:30:28;27.13;;;8.00;;
34988;SDS011;21192;40.182;44.516;2023-07-31T09:33:01;18.02;;;6.88;;
34988;SDS011;21192;40.182;44.516;2023-07-31T09:35:34;20.90;;;7.07;;
34988;SDS011;21192;40.182;44.516;2023-07-31T09:38:03;23.92;;;7.78;;
34988;SDS011;21192;40.182;44.516;2023-07-31T09:40:40;35.25;;;10.23;;
34988;SDS011;21192;40.182;44.516;2023-07-31T09:43:11;19.38;;;5.80;;
34988;SDS011;21192;40.182;44.516;2023-07-31T09:45:44;27.38;;;7.78;;
34988;SDS011;21192;40.182;44.516;2023-07-31T09:48:12;29.20;;;8.40;;
34988;SDS011;21192;40.182;44.516;2023-07-31T09:50:41;30.20;;;9.60;;
34988;SDS011;21192;40.182;44.516;2023-07-31T09:53:09;32.15;;;7.60;;
34988;SDS011;21192;40.182;44.516;2023-07-31T09:55:36;17.00;;;6.53;;
34988;SDS011;21192;40.182;44.516;2023-07-31T09:58:06;19.17;;;7.20;;
34988;SDS011;21192;40.182;44.516;2023-07-31T10:00:33;22.50;;;6.95;;
34988;SDS011;21192;40.182;44.516;2023-07-31T10:03:01;38.00;;;8.32;;
34988;SDS011;21192;40.182;44.516;2023-07-31T10:05:35;25.40;;;7.57;;
34988;SDS011;21192;40.182;44.516;2023-07-31T10:08:03;23.00;;;7.45;;
34988;SDS011;21192;40.182;44.516;2023-07-31T10:10:31;16.13;;;6.70;;
34988;SDS011;21192;40.182;44.516;2023-07-31T10:12:59;38.10;;;9.43;;
34988;SDS011;21192;40.182;44.516;2023-07-31T10:15:26;27.60;;;7.25;;
34988;SDS011;21192;40.182;44.516;2023-07-31T10:17:52;47.75;;;8.60;;
34988;SDS011;21192;40.182;44.516;2023-07-31T10:20:20;57.13;;;11.77;;
34988;SDS011;21192;40.182;44.516;2023-07-31T10:22:46;63.45;;;11.85;;
34988;SDS011;21192;40.182;44.516;2023-07-31T10:25:15;24.52;;;5.10;;
34988;SDS011;21192;40.182;44.516;2023-07-31T10:27:42;30.58;;;6.93;;
34988;SDS011;21192;40.182;44.516;2023-07-31T10:30:08;53.15;;;8.10;;
34988;SDS011;21192;40.182;44.516;2023-07-31T10:32:40;24.40;;;7.20;;
34988;SDS011;21192;40.182;44.516;2023-07-31T10:35:08;35.63;;;9.15;;
34988;SDS011;21192;40.182;44.516;2023-07-31T10:37:39;25.80;;;9.68;;
34988;SDS011;21192;40.182;44.516;2023-07-31T10:42:50;17.90;;;5.57;;
34988;SDS011;21192;40.182;44.516;2023-07-31T10:48:00;35.80;;;7.55;;
34988;SDS011;21192;40.182;44.516;2023-07-31T10:50:31;50.53;;;9.45;;
34988;SDS011;21192;40.182;44.516;2023-07-31T10:52:58;47.65;;;10.40;;
34988;SDS011;21192;40.182;44.516;2023-07-31T10:58:10;18.95;;;5.60;;
34988;SDS011;21192;40.182;44.516;2023-07-31T11:00:38;17.80;;;5.82;;
34988;SDS011;21192;40.182;44.516;2023-07-31T11:03:05;11.25;;;4.32;;
34988;SDS011;21192;40.182;44.516;2023-07-31T11:10:46;35.78;;;7.55;;
34988;SDS011;21192;40.182;44.516;2023-07-31T11:13:13;30.05;;;6.28;;
34988;SDS011;21192;40.182;44.516;2023-07-31T11:15:40;30.92;;;7.70;;
34988;SDS011;21192;40.182;44.516;2023-07-31T11:18:06;48.30;;;9.18;;
34988;SDS011;21192;40.182;44.516;2023-07-31T11:20:33;25.27;;;7.60;;
34988;SDS011;21192;40.182;44.516;2023-07-31T11:23:05;29.20;;;8.35;;
34988;SDS011;21192;40.182;44.516;2023-07-31T11:25:33;28.88;;;7.28;;
34988;SDS011;21192;40.182;44.516;2023-07-31T11:28:06;17.88;;;6.45;;
34988;SDS011;21192;40.182;44.516;2023-07-31T11:30:35;34.72;;;7.00;;
34988;SDS011;21192;40.182;44.516;2023-07-31T11:33:02;57.80;;;8.35;;
34988;SDS011;21192;40.182;44.516;2023-07-31T11:35:29;20.50;;;6.03;;
34988;SDS011;21192;40.182;44.516;2023-07-31T11:37:56;15.48;;;4.93;;
34988;SDS011;21192;40.182;44.516;2023-07-31T11:40:22;23.80;;;6.07;;
34988;SDS011;21192;40.182;44.516;2023-07-31T11:42:54;28.02;;;6.68;;
34988;SDS011;21192;40.182;44.516;2023-07-31T11:45:29;21.90;;;6.72;;
34988;SDS011;21192;40.182;44.516;2023-07-31T11:47:56;17.20;;;4.97;;
34988;SDS011;21192;40.182;44.516;2023-07-31T11:50:22;13.88;;;4.75;;
34988;SDS011;21192;40.182;44.516;2023-07-31T11:52:53;21.55;;;5.10;;
34988;SDS011;21192;40.182;44.516;2023-07-31T11:55:24;21.75;;;5.72;;
34988;SDS011;21192;40.182;44.516;2023-07-31T11:57:56;28.60;;;7.53;;
34988;SDS011;21192;40.182;44.516;2023-07-31T12:00:23;29.38;;;8.80;;
34988;SDS011;21192;40.182;44.516;2023-07-31T12:02:50;36.47;;;8.23;;
34988;SDS011;21192;40.182;44.516;2023-07-31T12:05:17;25.10;;;7.82;;
34988;SDS011;21192;40.182;44.516;2023-07-31T12:07:47;32.65;;;6.93;;
34988;SDS011;21192;40.182;44.516;2023-07-31T12:10:27;37.25;;;7.47;;
34988;SDS011;21192;40.182;44.516;2023-07-31T12:13:02;53.50;;;11.55;;
34988;SDS011;21192;40.182;44.516;2023-07-31T12:18:00;36.78;;;7.80;;
34988;SDS011;21192;40.182;44.516;2023-07-31T12:20:29;85.00;;;12.60;;
34988;SDS011;21192;40.182;44.516;2023-07-31T13:27:11;37.10;;;8.27;;
34988;SDS011;21192;40.182;44.516;2023-07-31T13:29:37;39.28;;;9.00;;
34988;SDS011;21192;40.182;44.516;2023-07-31T13:32:05;21.63;;;7.35;;
34988;SDS011;21192;40.182;44.516;2023-07-31T13:34:34;23.35;;;6.97;;
34988;SDS011;21192;40.182;44.516;2023-07-31T13:37:00;25.75;;;6.80;;
34988;SDS011;21192;40.182;44.516;2023-07-31T13:39:26;26.92;;;6.60;;
34988;SDS011;21192;40.182;44.516;2023-07-31T13:41:52;25.23;;;7.13;;
34988;SDS011;21192;40.182;44.516;2023-07-31T13:44:17;24.08;;;6.68;;
34988;SDS011;21192;40.182;44.516;2023-07-31T13:46:43;22.35;;;6.60;;
34988;SDS011;21192;40.182;44.516;2023-07-31T13:49:09;32.63;;;7.35;;
34988;SDS011;21192;40.182;44.516;2023-07-31T13:51:35;25.67;;;7.03;;
34988;SDS011;21192;40.182;44.516;2023-07-31T13:54:03;24.20;;;5.40;;
34988;SDS011;21192;40.182;44.516;2023-07-31T13:56:29;27.30;;;7.10;;
34988;SDS011;21192;40.182;44.516;2023-07-31T13:58:55;31.02;;;7.60;;
34988;SDS011;21192;40.182;44.516;2023-07-31T14:01:21;25.20;;;6.45;;
34988;SDS011;21192;40.182;44.516;2023-07-31T14:03:47;24.15;;;5.63;;
34988;SDS011;21192;40.182;44.516;2023-07-31T14:06:13;22.13;;;5.78;;
34988;SDS011;21192;40.182;44.516;2023-07-31T14:08:39;16.60;;;4.72;;
34988;SDS011;21192;40.182;44.516;2023-07-31T14:11:05;15.20;;;4.35;;
34988;SDS011;21192;40.182;44.516;2023-07-31T14:13:31;15.27;;;5.00;;
34988;SDS011;21192;40.182;44.516;2023-07-31T14:15:57;29.85;;;5.82;;
34988;SDS011;21192;40.182;44.516;2023-07-31T14:18:23;19.70;;;5.32;;
34988;SDS011;21192;40.182;44.516;2023-07-31T14:20:48;18.52;;;5.63;;
34988;SDS011;21192;40.182;44.516;2023-07-31T14:23:14;22.00;;;7.43;;
34988;SDS011;21192;40.182;44.516;2023-07-31T14:25:41;28.13;;;7.47;;
34988;SDS011;21192;40.182;44.516;2023-07-31T14:28:07;15.23;;;4.97;;
34988;SDS011;21192;40.182;44.516;2023-07-31T14:30:33;25.60;;;8.63;;
34988;SDS011;21192;40.182;44.516;2023-07-31T14:32:59;18.60;;;7.25;;
34988;SDS011;21192;40.182;44.516;2023-07-31T14:35:25;22.92;;;6.90;;
34988;SDS011;21192;40.182;44.516;2023-07-31T14:37:51;18.55;;;6.78;;
34988;SDS011;21192;40.182;44.516;2023-07-31T14:40:17;29.88;;;8.32;;
34988;SDS011;21192;40.182;44.516;2023-07-31T14:42:43;34.85;;;8.55;;
34988;SDS011;21192;40.182;44.516;2023-07-31T14:45:09;34.80;;;7.50;;
34988;SDS011;21192;40.182;44.516;2023-07-31T14:47:36;35.90;;;8.32;;
34988;SDS011;21192;40.182;44.516;2023-07-31T14:50:03;25.35;;;8.15;;
34988;SDS011;21192;40.182;44.516;2023-07-31T14:52:29;22.70;;;5.97;;
34988;SDS011;21192;40.182;44.516;2023-07-31T14:54:55;18.15;;;6.15;;
34988;SDS011;21192;40.182;44.516;2023-07-31T14:57:21;23.63;;;8.02;;
34988;SDS011;21192;40.182;44.516;2023-07-31T14:59:48;32.75;;;8.27;;
34988;SDS011;21192;40.182;44.516;2023-07-31T15:02:14;30.15;;;8.60;;
34988;SDS011;21192;40.182;44.516;2023-07-31T15:04:40;23.45;;;7.22;;
34988;SDS011;21192;40.182;44.516;2023-07-31T15:07:06;28.55;;;8.27;;
34988;SDS011;21192;40.182;44.516;2023-07-31T15:09:33;30.60;;;8.32;;
34988;SDS011;21192;40.182;44.516;2023-07-31T15:11:59;20.88;;;5.88;;
34988;SDS011;21192;40.182;44.516;2023-07-31T15:14:27;29.67;;;7.28;;
34988;SDS011;21192;40.182;44.516;2023-07-31T15:16:55;20.67;;;6.43;;
34988;SDS011;21192;40.182;44.516;2023-07-31T15:19:22;24.80;;;8.20;;
34988;SDS011;21192;40.182;44.516;2023-07-31T15:21:49;22.58;;;6.18;;
34988;SDS011;21192;40.182;44.516;2023-07-31T15:24:15;19.67;;;6.53;;
34988;SDS011;21192;40.182;44.516;2023-07-31T15:26:41;13.82;;;6.05;;
34988;SDS011;21192;40.182;44.516;2023-07-31T15:29:09;21.27;;;6.78;;
34988;SDS011;21192;40.182;44.516;2023-07-31T15:31:41;23.30;;;7.80;;
34988;SDS011;21192;40.182;44.516;2023-07-31T15:34:07;20.95;;;6.85;;
34988;SDS011;21192;40.182;44.516;2023-07-31T15:36:33;16.80;;;5.18;;
34988;SDS011;21192;40.182;44.516;2023-07-31T15:39:00;12.50;;;4.65;;
34988;SDS011;21192;40.182;44.516;2023-07-31T15:41:26;18.75;;;5.35;;
34988;SDS011;21192;40.182;44.516;2023-07-31T15:43:54;13.35;;;4.68;;
34988;SDS011;21192;40.182;44.516;2023-07-31T15:46:21;13.88;;;7.70;;
34988;SDS011;21192;40.182;44.516;2023-07-31T15:48:47;17.85;;;7.63;;
34988;SDS011;21192;40.182;44.516;2023-07-31T15:51:13;19.50;;;10.00;;
34988;SDS011;21192;40.182;44.516;2023-07-31T15:53:39;22.77;;;7.03;;
34988;SDS011;21192;40.182;44.516;2023-07-31T15:56:05;12.98;;;4.40;;